Terminal Aerodrome Forecast
Issued by NWS Albany, NY

Home | Current Version | Previous Version | Text Only | Print | Product List | Glossary On
Versions: 1 2 3 4 5 6 7 8 9 10 11 12 13 14 15 16 17 18 19 20 21
145
FTUS41 KALY 162345
TAFGFL
TAF
KGFL 162345Z 1700/1724 00000KT 3SM -SN SCT035 OVC100
      TEMPO 1700/1704 1 1/2SM -SN BR SCT015 OVC030
     FM170400 00000KT 3/4SM -SN BR VV010
     FM170800 00000KT 1/2SM SN FG VV008
     FM171500 29004KT 4SM -SN BR BKN025 OVC040
     FM171800 30008KT P6SM VCSH BKN040=

USA.gov is the U.S. government's official web portal to all federal, state and local government web resources and services.